createdAt,value
2018-09-06T00:00:15.124Z,15.20
2018-09-06T00:02:43.646Z,15.20
2018-09-06T00:05:12.117Z,15.20
2018-09-06T00:07:40.588Z,15.20
2018-09-06T00:10:09.084Z,15.20
2018-09-06T00:12:37.547Z,15.10
2018-09-06T00:15:06.307Z,15.20
2018-09-06T00:17:34.924Z,15.20
2018-09-06T00:20:03.397Z,15.20
2018-09-06T00:22:31.879Z,15.20
2018-09-06T00:25:00.371Z,15.20
2018-09-06T00:27:28.819Z,15.20
2018-09-06T00:29:58.111Z,15.30
2018-09-06T00:32:26.632Z,15.20
2018-09-06T00:34:55.079Z,15.20
2018-09-06T00:37:23.547Z,15.20
2018-09-06T00:39:52.032Z,15.20
2018-09-06T00:42:20.530Z,15.20
2018-09-06T00:44:49.071Z,15.20
2018-09-06T00:47:17.608Z,15.20
2018-09-06T00:49:46.118Z,15.30
2018-09-06T00:52:14.566Z,15.30
2018-09-06T00:54:43.114Z,15.30
2018-09-06T00:57:11.599Z,15.30
2018-09-06T00:59:40.078Z,15.30
2018-09-06T01:02:08.674Z,15.30
2018-09-06T01:04:37.118Z,15.30
2018-09-06T01:07:05.570Z,15.30
2018-09-06T01:09:34.082Z,15.30
2018-09-06T01:12:02.542Z,15.30
2018-09-06T01:14:31.012Z,15.30
2018-09-06T01:16:59.525Z,15.30
2018-09-06T01:19:27.982Z,15.30
2018-09-06T01:21:56.477Z,15.40
2018-09-06T01:24:24.974Z,15.40
2018-09-06T01:26:53.439Z,15.40
2018-09-06T01:29:21.990Z,15.40
2018-09-06T01:31:50.486Z,15.40
2018-09-06T01:34:18.979Z,15.40
2018-09-06T01:36:48.070Z,15.30
2018-09-06T01:39:16.907Z,15.30
2018-09-06T01:41:45.371Z,15.20
2018-09-06T01:44:13.842Z,15.20
2018-09-06T01:46:42.344Z,15.10
2018-09-06T01:49:10.798Z,15.00
2018-09-06T01:51:39.251Z,15.00
2018-09-06T01:54:07.750Z,14.90
2018-09-06T01:56:36.205Z,14.80
2018-09-06T01:59:04.721Z,14.80
2018-09-06T02:01:33.302Z,14.70
2018-09-06T02:04:01.857Z,14.60
2018-09-06T02:06:30.783Z,14.60
2018-09-06T02:08:59.323Z,14.60
2018-09-06T02:11:27.790Z,14.50
2018-09-06T02:13:56.318Z,14.50
2018-09-06T02:16:24.850Z,14.50
2018-09-06T02:18:53.341Z,14.50
2018-09-06T02:21:21.786Z,14.40
2018-09-06T02:23:50.292Z,14.40
2018-09-06T02:26:18.766Z,14.40
2018-09-06T02:28:47.230Z,14.30
2018-09-06T02:31:15.715Z,14.30
2018-09-06T02:33:44.169Z,14.30
2018-09-06T02:36:12.619Z,14.40
2018-09-06T02:38:41.106Z,14.40
2018-09-06T02:41:09.562Z,14.40
2018-09-06T02:43:37.998Z,14.40
2018-09-06T02:46:06.617Z,14.40
2018-09-06T02:48:39.918Z,14.50
2018-09-06T02:51:13.765Z,14.50
2018-09-06T02:53:42.388Z,14.50
2018-09-06T02:56:11.286Z,14.60
2018-09-06T02:58:39.834Z,14.60
2018-09-06T03:01:08.578Z,14.60
2018-09-06T03:03:37.092Z,14.60
2018-09-06T03:06:05.752Z,14.60
2018-09-06T03:08:34.237Z,14.60
2018-09-06T03:11:08.514Z,14.60
2018-09-06T03:13:36.982Z,14.60
2018-09-06T03:16:05.458Z,14.50
2018-09-06T03:18:33.954Z,14.50
2018-09-06T03:21:02.405Z,14.50
2018-09-06T03:23:30.834Z,14.50
2018-09-06T03:25:59.414Z,14.50
2018-09-06T03:28:27.855Z,14.50
2018-09-06T03:30:56.377Z,14.50
2018-09-06T03:33:24.893Z,14.50
2018-09-06T03:35:53.400Z,14.50
2018-09-06T03:38:21.813Z,14.50
2018-09-06T03:40:50.334Z,14.50
2018-09-06T03:43:18.859Z,14.40
2018-09-06T03:45:47.305Z,14.40
2018-09-06T03:48:15.824Z,14.40
2018-09-06T03:50:44.316Z,14.40
2018-09-06T03:53:12.766Z,14.40
2018-09-06T03:55:41.303Z,14.30
2018-09-06T03:58:09.865Z,14.30
2018-09-06T04:00:38.344Z,14.30
2018-09-06T04:03:06.856Z,14.30
2018-09-06T04:05:35.329Z,14.30
2018-09-06T04:08:03.814Z,14.30
2018-09-06T04:10:32.323Z,14.20
2018-09-06T04:13:00.787Z,14.20
2018-09-06T04:15:29.249Z,14.20
2018-09-06T04:17:57.746Z,14.10
2018-09-06T04:21:55.626Z,14.20
2018-09-06T04:24:24.143Z,14.20
2018-09-06T04:26:52.622Z,14.30
2018-09-06T04:29:21.074Z,14.20
2018-09-06T04:31:49.610Z,14.30
2018-09-06T04:34:18.090Z,14.30
2018-09-06T04:36:46.534Z,14.40
2018-09-06T04:39:15.042Z,14.40
2018-09-06T04:41:43.496Z,14.40
2018-09-06T04:44:11.961Z,14.40
2018-09-06T04:46:40.498Z,14.40
2018-09-06T04:49:08.951Z,14.40
2018-09-06T04:51:37.404Z,14.40
2018-09-06T04:54:05.914Z,14.40
2018-09-06T04:56:34.418Z,14.50
2018-09-06T04:59:02.933Z,14.40
2018-09-06T05:01:31.484Z,14.40
2018-09-06T05:04:00.022Z,14.40
2018-09-06T05:06:28.481Z,14.30
2018-09-06T05:08:56.986Z,14.40
2018-09-06T05:11:25.535Z,14.30
2018-09-06T05:13:54.102Z,14.40
2018-09-06T05:16:22.626Z,14.40
2018-09-06T05:18:51.086Z,14.40
2018-09-06T05:21:19.550Z,14.40
2018-09-06T05:23:48.014Z,14.40
2018-09-06T05:26:16.445Z,14.40
2018-09-06T05:28:44.899Z,14.40
2018-09-06T05:31:13.441Z,14.50
2018-09-06T05:33:41.949Z,14.50
2018-09-06T05:36:10.773Z,14.50
2018-09-06T05:38:39.282Z,14.50
2018-09-06T05:41:07.736Z,14.50
2018-09-06T05:43:36.184Z,14.50
2018-09-06T05:46:04.742Z,14.60
2018-09-06T05:48:33.231Z,14.60
2018-09-06T05:51:01.674Z,14.60
2018-09-06T05:53:30.227Z,14.60
2018-09-06T05:55:58.690Z,14.60
2018-09-06T05:58:27.246Z,14.70
2018-09-06T06:00:55.748Z,14.70
2018-09-06T06:03:24.238Z,14.70
2018-09-06T06:05:52.673Z,14.80
2018-09-06T06:08:32.426Z,14.90
2018-09-06T06:11:00.906Z,14.90
2018-09-06T06:13:29.357Z,15.00
2018-09-06T06:15:57.843Z,15.10
2018-09-06T06:18:26.272Z,15.20
2018-09-06T06:20:54.775Z,15.30
2018-09-06T06:23:23.314Z,15.40
2018-09-06T06:25:51.822Z,15.50
2018-09-06T06:28:20.249Z,15.60
2018-09-06T06:30:48.770Z,15.70
2018-09-06T06:33:17.226Z,15.90
2018-09-06T06:35:45.714Z,16.00
2018-09-06T06:38:14.203Z,16.10
2018-09-06T06:40:42.690Z,16.20
2018-09-06T06:43:11.172Z,16.30
2018-09-06T06:45:39.702Z,16.30
2018-09-06T06:48:08.246Z,16.40
2018-09-06T06:50:36.835Z,16.50
2018-09-06T06:53:05.383Z,16.50
2018-09-06T06:55:33.842Z,16.60
2018-09-06T06:58:02.433Z,16.70
2018-09-06T07:00:35.117Z,16.80
2018-09-06T07:03:03.630Z,16.80
2018-09-06T07:05:32.103Z,16.90
2018-09-06T07:08:00.583Z,16.90
2018-09-06T07:10:29.067Z,17.00
2018-09-06T07:12:57.564Z,17.10
2018-09-06T07:15:26.019Z,17.10
2018-09-06T07:17:54.560Z,17.10
2018-09-06T07:20:23.003Z,17.10
2018-09-06T07:22:51.505Z,17.10
2018-09-06T07:25:20.038Z,17.20
2018-09-06T07:27:48.485Z,17.20
2018-09-06T07:30:16.972Z,17.30
2018-09-06T07:32:45.495Z,17.40
2018-09-06T07:35:14.010Z,17.50
2018-09-06T07:37:42.470Z,17.50
2018-09-06T07:40:11.325Z,17.60
2018-09-06T07:42:39.814Z,17.70
2018-09-06T07:45:08.362Z,17.80
2018-09-06T07:47:36.902Z,17.80
2018-09-06T07:50:05.578Z,17.90
2018-09-06T07:52:34.045Z,18.00
2018-09-06T07:55:02.611Z,18.00
2018-09-06T07:57:31.509Z,18.10
2018-09-06T08:06:44.347Z,18.20
2018-09-06T08:09:13.226Z,18.40
2018-09-06T08:11:42.044Z,18.50
2018-09-06T08:14:10.553Z,18.50
2018-09-06T08:16:39.055Z,18.70
2018-09-06T08:19:07.564Z,18.70
2018-09-06T08:21:36.074Z,18.80
2018-09-06T08:24:04.558Z,18.90
2018-09-06T08:26:33.056Z,18.90
2018-09-06T08:29:01.563Z,19.00
2018-09-06T08:31:30.119Z,19.00
2018-09-06T08:33:58.539Z,19.10
2018-09-06T08:36:27.089Z,19.30
2018-09-06T08:38:55.542Z,19.40
2018-09-06T08:41:24.036Z,19.50
2018-09-06T08:43:52.615Z,19.60
2018-09-06T08:46:21.255Z,19.70
2018-09-06T08:48:49.834Z,19.70
2018-09-06T08:51:18.452Z,19.90
2018-09-06T08:53:46.930Z,20.00
2018-09-06T08:56:15.374Z,20.10
2018-09-06T08:58:43.898Z,20.20
2018-09-06T09:01:17.806Z,20.30
2018-09-06T09:03:46.313Z,20.40
2018-09-06T09:06:14.779Z,20.60
2018-09-06T09:08:43.291Z,20.60
2018-09-06T09:11:11.782Z,20.70
2018-09-06T09:13:40.254Z,20.80
2018-09-06T09:16:08.731Z,20.90
2018-09-06T09:18:37.228Z,21.00
2018-09-06T09:21:05.746Z,21.00
2018-09-06T09:23:34.198Z,21.10
2018-09-06T09:26:02.718Z,21.10
2018-09-06T09:28:31.178Z,21.10
2018-09-06T09:30:59.655Z,21.10
2018-09-06T09:33:28.146Z,21.00
2018-09-06T09:35:56.624Z,20.90
2018-09-06T09:38:25.090Z,20.90
2018-09-06T09:40:53.630Z,21.00
2018-09-06T09:43:22.162Z,21.00
2018-09-06T09:45:50.614Z,21.10
2018-09-06T09:48:19.193Z,21.20
2018-09-06T09:53:15.903Z,21.60
2018-09-06T09:55:44.414Z,21.70
2018-09-06T09:58:12.898Z,21.70
2018-09-06T10:00:42.438Z,21.70
2018-09-06T10:03:16.159Z,21.70
2018-09-06T10:05:54.670Z,21.70
2018-09-06T10:08:28.473Z,21.70
2018-09-06T10:10:56.998Z,21.80
2018-09-06T10:13:25.575Z,21.80
2018-09-06T10:15:54.035Z,21.80
2018-09-06T10:18:22.566Z,21.90
2018-09-06T10:20:51.049Z,21.90
2018-09-06T10:23:19.586Z,22.00
2018-09-06T10:25:48.058Z,22.00
2018-09-06T10:28:16.682Z,22.00
2018-09-06T10:30:45.342Z,22.20
2018-09-06T10:33:13.834Z,22.30
2018-09-06T10:35:42.332Z,22.50
2018-09-06T10:38:10.899Z,22.60
2018-09-06T10:40:39.409Z,22.70
2018-09-06T10:43:07.908Z,22.80
2018-09-06T10:45:36.438Z,22.90
2018-09-06T10:48:04.963Z,22.90
2018-09-06T10:50:33.476Z,22.90
2018-09-06T10:53:02.006Z,22.90
2018-09-06T10:55:30.498Z,22.90
2018-09-06T10:57:58.974Z,22.90
2018-09-06T11:00:28.807Z,22.90
2018-09-06T11:02:58.118Z,23.00
2018-09-06T11:05:26.614Z,23.10
2018-09-06T11:07:55.185Z,23.20
2018-09-06T11:10:23.682Z,23.20
2018-09-06T11:12:52.490Z,23.30
2018-09-06T11:15:20.998Z,23.30
2018-09-06T11:17:49.493Z,23.20
2018-09-06T11:20:17.918Z,23.00
2018-09-06T11:22:46.423Z,22.80
2018-09-06T11:25:14.918Z,22.70
2018-09-06T11:27:43.392Z,22.80
2018-09-06T11:30:11.906Z,22.90
2018-09-06T11:32:40.375Z,23.00
2018-09-06T11:35:08.814Z,23.00
2018-09-06T11:37:38.678Z,23.00
2018-09-06T11:40:07.170Z,23.10
2018-09-06T11:42:35.677Z,23.20
2018-09-06T11:45:04.274Z,23.40
2018-09-06T11:47:32.771Z,23.50
2018-09-06T11:50:01.219Z,23.60
2018-09-06T11:52:29.706Z,23.80
2018-09-06T11:54:58.183Z,23.80
2018-09-06T11:57:26.637Z,23.80
2018-09-06T11:59:55.287Z,23.80
2018-09-06T12:02:23.883Z,23.80
2018-09-06T12:04:52.798Z,23.80
2018-09-06T12:07:21.354Z,23.70
2018-09-06T12:09:49.852Z,23.70
2018-09-06T12:12:18.322Z,23.60
2018-09-06T12:14:46.894Z,23.40
2018-09-06T12:17:15.991Z,23.20
2018-09-06T12:19:44.550Z,23.00
2018-09-06T12:22:13.118Z,23.00
2018-09-06T12:24:41.804Z,23.00
2018-09-06T12:27:10.275Z,23.10
2018-09-06T12:29:38.841Z,23.10
2018-09-06T12:32:07.353Z,23.20
2018-09-06T12:34:36.371Z,23.30
2018-09-06T12:37:09.574Z,23.40
2018-09-06T12:39:38.062Z,23.50
2018-09-06T12:42:06.576Z,23.60
2018-09-06T12:44:35.182Z,23.60
2018-09-06T12:47:03.747Z,23.50
2018-09-06T12:49:32.188Z,23.30
2018-09-06T12:52:00.706Z,23.10
2018-09-06T12:54:29.158Z,23.00
2018-09-06T12:56:57.817Z,23.00
2018-09-06T12:59:26.406Z,23.00
2018-09-06T13:01:54.886Z,23.10
2018-09-06T13:04:23.598Z,23.20
2018-09-06T13:06:52.094Z,23.30
2018-09-06T13:09:20.581Z,23.30
2018-09-06T13:11:49.045Z,23.20
2018-09-06T13:14:17.559Z,23.20
2018-09-06T13:16:46.051Z,23.20
2018-09-06T13:19:14.520Z,23.30
2018-09-06T13:21:43.066Z,23.30
2018-09-06T13:24:11.506Z,23.40
2018-09-06T13:26:40.079Z,23.40
2018-09-06T13:29:08.590Z,23.30
2018-09-06T13:31:37.126Z,23.40
2018-09-06T13:34:05.586Z,23.60
2018-09-06T13:36:34.082Z,23.70
2018-09-06T13:39:02.582Z,23.60
2018-09-06T13:41:31.055Z,23.50
2018-09-06T13:43:59.583Z,23.20
2018-09-06T13:46:28.039Z,23.10
2018-09-06T13:48:56.495Z,23.00
2018-09-06T13:51:25.018Z,23.00
2018-09-06T13:53:53.466Z,23.00
2018-09-06T13:56:22.010Z,23.10
2018-09-06T13:58:50.542Z,23.10
2018-09-06T14:01:19.131Z,23.10
2018-09-06T14:03:47.807Z,23.00
2018-09-06T14:06:16.501Z,23.00
2018-09-06T14:08:45.009Z,23.10
2018-09-06T14:11:13.493Z,23.00
2018-09-06T14:13:42.142Z,23.00
2018-09-06T14:16:10.630Z,22.90
2018-09-06T14:18:39.142Z,23.00
2018-09-06T14:21:07.654Z,23.00
2018-09-06T14:23:36.100Z,23.00
2018-09-06T14:26:04.566Z,23.00
2018-09-06T14:28:33.074Z,22.90
2018-09-06T14:31:01.621Z,22.80
2018-09-06T14:33:30.054Z,22.70
2018-09-06T14:35:58.826Z,22.60
2018-09-06T14:38:27.266Z,22.60
2018-09-06T14:40:55.694Z,22.60
2018-09-06T14:43:24.217Z,22.50
2018-09-06T14:45:52.655Z,22.50
2018-09-06T14:48:21.122Z,22.40
2018-09-06T14:50:49.638Z,22.40
2018-09-06T14:53:18.066Z,22.30
2018-09-06T14:55:46.535Z,22.30
2018-09-06T14:58:15.010Z,22.20
2018-09-06T15:00:43.506Z,22.20
2018-09-06T15:03:11.948Z,22.20
2018-09-06T15:05:40.446Z,22.20
2018-09-06T15:08:08.952Z,22.10
2018-09-06T15:10:37.513Z,22.00
2018-09-06T15:13:06.222Z,22.00
2018-09-06T15:15:34.694Z,22.00
2018-09-06T15:18:03.157Z,22.00
2018-09-06T15:20:31.654Z,22.10
2018-09-06T15:23:00.071Z,22.10
2018-09-06T15:25:28.504Z,22.20
2018-09-06T15:27:57.037Z,22.20
2018-09-06T15:30:25.575Z,22.30
2018-09-06T15:32:54.096Z,22.20
2018-09-06T15:35:22.620Z,22.20
2018-09-06T15:37:51.194Z,22.20
2018-09-06T15:40:19.850Z,22.20
2018-09-06T15:42:48.347Z,22.20
2018-09-06T15:45:16.945Z,22.20
2018-09-06T15:47:45.398Z,22.20
2018-09-06T15:50:13.952Z,22.10
2018-09-06T15:52:42.827Z,22.20
2018-09-06T15:55:11.268Z,22.10
2018-09-06T15:57:39.766Z,22.00
2018-09-06T16:00:08.293Z,21.90
2018-09-06T16:02:36.750Z,21.70
2018-09-06T16:05:05.358Z,21.60
2018-09-06T16:07:33.853Z,21.40
2018-09-06T16:10:02.315Z,21.30
2018-09-06T16:12:30.833Z,21.20
2018-09-06T16:14:59.339Z,21.20
2018-09-06T16:17:27.818Z,21.10
2018-09-06T16:19:56.335Z,21.00
2018-09-06T16:22:24.857Z,20.90
2018-09-06T16:24:53.294Z,20.90
2018-09-06T16:27:21.770Z,20.80
2018-09-06T16:29:50.271Z,20.70
2018-09-06T16:32:18.779Z,20.60
2018-09-06T16:34:47.306Z,20.60
2018-09-06T16:37:16.110Z,20.50
2018-09-06T16:39:44.431Z,20.50
2018-09-06T16:42:12.928Z,20.40
2018-09-06T16:44:41.386Z,20.30
2018-09-06T16:47:09.870Z,20.20
2018-09-06T16:49:38.324Z,20.10
2018-09-06T16:52:06.770Z,20.00
2018-09-06T16:54:35.206Z,19.90
2018-09-06T16:57:03.750Z,19.90
2018-09-06T16:59:32.198Z,19.80
2018-09-06T17:02:00.634Z,19.70
2018-09-06T17:04:29.199Z,19.70
2018-09-06T17:06:57.708Z,19.60
2018-09-06T17:09:26.188Z,19.60
2018-09-06T17:11:54.735Z,19.60
2018-09-06T17:14:23.300Z,19.50
2018-09-06T17:16:51.734Z,19.50
2018-09-06T17:19:20.291Z,19.40
2018-09-06T17:21:48.733Z,19.30
2018-09-06T17:24:17.168Z,19.20
2018-09-06T17:26:45.686Z,19.10
2018-09-06T17:29:14.126Z,19.00
2018-09-06T17:31:42.646Z,18.90
2018-09-06T17:34:11.335Z,18.80
2018-09-06T17:36:39.798Z,18.70
2018-09-06T17:39:10.682Z,18.60
2018-09-06T17:41:39.169Z,18.50
2018-09-06T17:44:08.022Z,18.50
2018-09-06T17:46:36.857Z,18.40
2018-09-06T17:49:05.749Z,18.30
2018-09-06T17:51:34.199Z,18.30
2018-09-06T17:54:02.666Z,18.20
2018-09-06T17:56:31.212Z,18.10
2018-09-06T17:58:59.721Z,18.00
2018-09-06T18:01:36.117Z,18.00
2018-09-06T18:04:05.135Z,17.90
2018-09-06T18:06:33.608Z,17.80
2018-09-06T18:09:03.062Z,17.80
2018-09-06T18:11:31.558Z,17.70
2018-09-06T18:14:00.034Z,17.70
2018-09-06T18:16:28.608Z,17.60
2018-09-06T18:18:57.202Z,17.60
2018-09-06T18:21:26.258Z,17.50
2018-09-06T18:23:55.591Z,17.50
2018-09-06T18:26:24.072Z,17.40
2018-09-06T18:28:52.570Z,17.40
2018-09-06T18:31:21.138Z,17.30
2018-09-06T18:40:33.911Z,17.20
2018-09-06T18:43:02.419Z,17.20
2018-09-06T18:45:30.973Z,17.10
2018-09-06T18:47:59.538Z,17.10
2018-09-06T18:50:28.018Z,17.00
2018-09-06T18:52:56.505Z,17.00
2018-09-06T18:55:25.318Z,16.90
2018-09-06T18:57:53.811Z,16.90
2018-09-06T19:00:22.993Z,16.90
2018-09-06T19:02:52.354Z,16.90
2018-09-06T19:05:22.807Z,16.80
2018-09-06T19:07:51.303Z,16.80
2018-09-06T19:10:19.843Z,16.80
2018-09-06T19:12:53.616Z,16.70
2018-09-06T19:15:22.102Z,16.60
2018-09-06T19:17:52.650Z,16.60
2018-09-06T19:20:21.629Z,16.60
2018-09-06T19:22:51.318Z,16.60
2018-09-06T19:25:19.826Z,16.50
2018-09-06T19:27:49.255Z,16.50
2018-09-06T19:30:18.393Z,16.50
2018-09-06T19:32:47.235Z,16.50
2018-09-06T19:35:16.008Z,16.50
2018-09-06T19:37:44.558Z,16.40
2018-09-06T19:41:15.826Z,16.40
2018-09-06T19:43:44.374Z,16.40
2018-09-06T19:46:12.923Z,16.40
2018-09-06T19:48:41.366Z,16.40
2018-09-06T19:51:09.894Z,16.40
2018-09-06T19:53:38.330Z,16.30
2018-09-06T19:56:06.803Z,16.30
2018-09-06T19:58:35.283Z,16.30
2018-09-06T20:01:03.759Z,16.30
2018-09-06T20:03:33.414Z,16.20
2018-09-06T20:06:01.894Z,16.20
2018-09-06T20:08:30.346Z,16.30
2018-09-06T20:10:58.779Z,16.20
2018-09-06T20:13:27.286Z,16.20
2018-09-06T20:15:55.730Z,16.20
2018-09-06T20:18:24.226Z,16.20
2018-09-06T20:20:52.791Z,16.20
2018-09-06T20:23:21.226Z,16.20
2018-09-06T20:25:50.534Z,16.10
2018-09-06T20:28:19.206Z,16.10
2018-09-06T20:30:47.557Z,16.10
2018-09-06T20:33:16.154Z,16.10
2018-09-06T20:35:44.621Z,16.10
2018-09-06T20:38:13.061Z,16.10
2018-09-06T20:40:41.569Z,16.00
2018-09-06T20:43:10.138Z,16.00
2018-09-06T20:45:38.657Z,16.00
2018-09-06T20:48:07.127Z,16.00
2018-09-06T20:50:35.757Z,16.00
2018-09-06T20:53:04.236Z,16.00
2018-09-06T20:55:32.699Z,16.00
2018-09-06T20:58:01.198Z,16.00
2018-09-06T21:00:29.653Z,16.00
2018-09-06T21:02:58.084Z,16.00
2018-09-06T21:05:26.584Z,16.00
2018-09-06T21:07:55.090Z,16.00
2018-09-06T21:10:23.571Z,16.00
2018-09-06T21:12:52.082Z,16.00
2018-09-06T21:15:20.554Z,16.00
2018-09-06T21:17:49.035Z,16.00
2018-09-06T21:20:17.574Z,16.00
2018-09-06T21:22:46.034Z,16.00
2018-09-06T21:25:14.487Z,15.90
2018-09-06T21:27:43.074Z,15.90
2018-09-06T21:30:11.537Z,15.90
2018-09-06T21:32:40.003Z,15.90
2018-09-06T21:35:08.730Z,15.90
2018-09-06T21:37:37.232Z,15.90
2018-09-06T21:40:05.888Z,15.90
2018-09-06T21:42:34.346Z,15.90
2018-09-06T21:45:02.802Z,15.90
2018-09-06T21:47:31.274Z,15.90
2018-09-06T21:49:59.791Z,15.90
2018-09-06T21:52:28.229Z,15.90
2018-09-06T21:54:56.666Z,15.90
2018-09-06T21:57:25.142Z,15.90
2018-09-06T21:59:53.591Z,15.80
2018-09-06T22:02:27.199Z,15.80
2018-09-06T22:04:55.658Z,15.80
2018-09-06T22:07:24.117Z,15.80
2018-09-06T22:09:52.686Z,15.80
2018-09-06T22:12:21.117Z,15.80
2018-09-06T22:14:50.798Z,15.80
2018-09-06T22:17:19.330Z,15.90
2018-09-06T22:19:48.070Z,15.90
2018-09-06T22:22:16.561Z,15.90
2018-09-06T22:24:45.059Z,15.90
2018-09-06T22:27:13.540Z,16.00
2018-09-06T22:29:42.006Z,16.00
2018-09-06T22:32:10.553Z,16.00
2018-09-06T22:34:39.017Z,16.00
2018-09-06T22:37:07.490Z,16.00
2018-09-06T22:39:36.458Z,16.00
2018-09-06T22:42:04.910Z,16.00
2018-09-06T22:44:33.473Z,16.00
2018-09-06T22:47:02.022Z,16.00
2018-09-06T22:49:30.494Z,16.00
2018-09-06T22:51:59.007Z,16.00
2018-09-06T22:54:27.498Z,16.00
2018-09-06T22:56:56.034Z,16.00
2018-09-06T22:59:24.585Z,16.00
2018-09-06T23:01:53.148Z,16.00
2018-09-06T23:04:21.611Z,16.00
2018-09-06T23:06:50.130Z,16.00
2018-09-06T23:09:18.658Z,15.90
2018-09-06T23:11:47.606Z,15.90
2018-09-06T23:14:18.470Z,15.90
2018-09-06T23:16:46.990Z,15.90
2018-09-06T23:19:15.846Z,15.90
2018-09-06T23:21:44.323Z,15.90
2018-09-06T23:24:13.089Z,15.90
2018-09-06T23:26:41.579Z,15.90
2018-09-06T23:29:10.066Z,15.90
2018-09-06T23:31:38.602Z,15.90
2018-09-06T23:34:07.282Z,15.90
2018-09-06T23:36:36.118Z,15.90
2018-09-06T23:39:05.860Z,15.90
2018-09-06T23:41:34.342Z,15.90
2018-09-06T23:44:02.831Z,15.80
2018-09-06T23:46:31.345Z,15.90
2018-09-06T23:48:59.786Z,15.80
2018-09-06T23:51:28.231Z,15.80
2018-09-06T23:53:56.682Z,15.80
2018-09-06T23:56:25.157Z,15.80
2018-09-06T23:58:53.595Z,15.70
